sensor_id;sensor_type;location;lat;lon;timestamp;P1;durP1;ratioP1;P2;durP2;ratioP2
71091;SDS011;58751;50.708;7.134;2023-04-25T00:02:11;5.70;;;3.53;;
71091;SDS011;58751;50.708;7.134;2023-04-25T00:04:36;4.32;;;3.15;;
71091;SDS011;58751;50.708;7.134;2023-04-25T00:07:01;4.60;;;3.50;;
71091;SDS011;58751;50.708;7.134;2023-04-25T00:09:26;5.60;;;3.40;;
71091;SDS011;58751;50.708;7.134;2023-04-25T00:11:52;8.23;;;3.43;;
71091;SDS011;58751;50.708;7.134;2023-04-25T00:14:17;8.30;;;5.03;;
71091;SDS011;58751;50.708;7.134;2023-04-25T00:16:42;3.90;;;3.37;;
71091;SDS011;58751;50.708;7.134;2023-04-25T00:19:08;10.20;;;4.60;;
71091;SDS011;58751;50.708;7.134;2023-04-25T00:21:34;7.78;;;4.25;;
71091;SDS011;58751;50.708;7.134;2023-04-25T00:23:59;8.43;;;3.50;;
71091;SDS011;58751;50.708;7.134;2023-04-25T00:26:24;9.30;;;3.93;;
71091;SDS011;58751;50.708;7.134;2023-04-25T00:28:50;5.17;;;3.40;;
71091;SDS011;58751;50.708;7.134;2023-04-25T00:31:15;10.10;;;4.20;;
71091;SDS011;58751;50.708;7.134;2023-04-25T00:33:40;11.00;;;3.70;;
71091;SDS011;58751;50.708;7.134;2023-04-25T00:36:07;7.67;;;3.63;;
71091;SDS011;58751;50.708;7.134;2023-04-25T00:38:32;5.43;;;3.70;;
71091;SDS011;58751;50.708;7.134;2023-04-25T00:40:58;6.30;;;4.23;;
71091;SDS011;58751;50.708;7.134;2023-04-25T00:43:23;9.97;;;4.03;;
71091;SDS011;58751;50.708;7.134;2023-04-25T00:45:48;8.40;;;4.13;;
71091;SDS011;58751;50.708;7.134;2023-04-25T00:48:15;9.68;;;3.60;;
71091;SDS011;58751;50.708;7.134;2023-04-25T00:50:42;8.60;;;4.18;;
71091;SDS011;58751;50.708;7.134;2023-04-25T00:53:09;9.30;;;3.90;;
71091;SDS011;58751;50.708;7.134;2023-04-25T00:55:34;10.77;;;5.43;;
71091;SDS011;58751;50.708;7.134;2023-04-25T00:57:59;5.60;;;3.60;;
71091;SDS011;58751;50.708;7.134;2023-04-25T01:00:24;8.97;;;4.40;;
71091;SDS011;58751;50.708;7.134;2023-04-25T01:02:49;6.10;;;4.07;;
71091;SDS011;58751;50.708;7.134;2023-04-25T01:05:15;4.77;;;4.30;;
71091;SDS011;58751;50.708;7.134;2023-04-25T01:07:40;6.07;;;3.90;;
71091;SDS011;58751;50.708;7.134;2023-04-25T01:10:07;10.33;;;5.03;;
71091;SDS011;58751;50.708;7.134;2023-04-25T01:12:33;10.68;;;4.95;;
71091;SDS011;58751;50.708;7.134;2023-04-25T01:14:58;7.50;;;5.23;;
71091;SDS011;58751;50.708;7.134;2023-04-25T01:17:23;5.07;;;4.67;;
71091;SDS011;58751;50.708;7.134;2023-04-25T01:19:48;10.37;;;4.87;;
71091;SDS011;58751;50.708;7.134;2023-04-25T01:22:15;7.87;;;4.53;;
71091;SDS011;58751;50.708;7.134;2023-04-25T01:24:40;6.82;;;4.18;;
71091;SDS011;58751;50.708;7.134;2023-04-25T01:27:06;7.30;;;3.97;;
71091;SDS011;58751;50.708;7.134;2023-04-25T01:29:32;7.40;;;5.10;;
71091;SDS011;58751;50.708;7.134;2023-04-25T01:31:57;7.10;;;4.40;;
71091;SDS011;58751;50.708;7.134;2023-04-25T01:34:22;7.47;;;4.53;;
71091;SDS011;58751;50.708;7.134;2023-04-25T01:36:48;11.30;;;5.07;;
71091;SDS011;58751;50.708;7.134;2023-04-25T01:39:15;9.63;;;4.70;;
71091;SDS011;58751;50.708;7.134;2023-04-25T01:41:40;8.75;;;5.30;;
71091;SDS011;58751;50.708;7.134;2023-04-25T01:44:06;8.27;;;5.33;;
71091;SDS011;58751;50.708;7.134;2023-04-25T01:46:31;6.30;;;4.37;;
71091;SDS011;58751;50.708;7.134;2023-04-25T01:48:56;12.80;;;5.50;;
71091;SDS011;58751;50.708;7.134;2023-04-25T01:51:21;8.87;;;5.00;;
71091;SDS011;58751;50.708;7.134;2023-04-25T01:53:46;8.67;;;5.17;;
71091;SDS011;58751;50.708;7.134;2023-04-25T01:56:13;7.43;;;4.37;;
71091;SDS011;58751;50.708;7.134;2023-04-25T01:58:38;9.95;;;4.60;;
71091;SDS011;58751;50.708;7.134;2023-04-25T02:01:03;6.13;;;4.20;;
71091;SDS011;58751;50.708;7.134;2023-04-25T02:03:30;9.43;;;4.37;;
71091;SDS011;58751;50.708;7.134;2023-04-25T02:05:55;11.07;;;4.70;;
71091;SDS011;58751;50.708;7.134;2023-04-25T02:08:20;11.17;;;4.70;;
71091;SDS011;58751;50.708;7.134;2023-04-25T02:10:45;11.43;;;4.77;;
71091;SDS011;58751;50.708;7.134;2023-04-25T02:13:12;7.67;;;4.77;;
71091;SDS011;58751;50.708;7.134;2023-04-25T02:15:37;9.27;;;4.10;;
71091;SDS011;58751;50.708;7.134;2023-04-25T02:18:02;5.87;;;3.87;;
71091;SDS011;58751;50.708;7.134;2023-04-25T02:20:28;5.67;;;4.80;;
71091;SDS011;58751;50.708;7.134;2023-04-25T02:22:53;9.40;;;4.53;;
71091;SDS011;58751;50.708;7.134;2023-04-25T02:25:19;9.70;;;4.27;;
71091;SDS011;58751;50.708;7.134;2023-04-25T02:27:44;9.90;;;4.80;;
71091;SDS011;58751;50.708;7.134;2023-04-25T02:30:11;9.97;;;5.50;;
71091;SDS011;58751;50.708;7.134;2023-04-25T02:32:36;15.55;;;5.65;;
71091;SDS011;58751;50.708;7.134;2023-04-25T02:35:01;13.63;;;4.90;;
71091;SDS011;58751;50.708;7.134;2023-04-25T02:37:27;13.93;;;5.27;;
71091;SDS011;58751;50.708;7.134;2023-04-25T02:39:52;7.73;;;4.47;;
71091;SDS011;58751;50.708;7.134;2023-04-25T02:42:17;6.40;;;5.00;;
71091;SDS011;58751;50.708;7.134;2023-04-25T02:44:42;12.00;;;5.10;;
71091;SDS011;58751;50.708;7.134;2023-04-25T02:47:09;10.17;;;5.40;;
71091;SDS011;58751;50.708;7.134;2023-04-25T02:49:34;10.27;;;5.43;;
71091;SDS011;58751;50.708;7.134;2023-04-25T02:51:59;9.03;;;5.00;;
71091;SDS011;58751;50.708;7.134;2023-04-25T02:54:24;10.80;;;4.80;;
71091;SDS011;58751;50.708;7.134;2023-04-25T02:56:49;8.40;;;4.50;;
71091;SDS011;58751;50.708;7.134;2023-04-25T02:59:15;11.53;;;5.70;;
71091;SDS011;58751;50.708;7.134;2023-04-25T03:01:40;11.10;;;5.43;;
71091;SDS011;58751;50.708;7.134;2023-04-25T03:04:06;10.70;;;4.77;;
71091;SDS011;58751;50.708;7.134;2023-04-25T03:06:32;11.52;;;5.63;;
71091;SDS011;58751;50.708;7.134;2023-04-25T03:08:57;7.00;;;4.60;;
71091;SDS011;58751;50.708;7.134;2023-04-25T03:11:23;9.47;;;4.50;;
71091;SDS011;58751;50.708;7.134;2023-04-25T03:13:48;11.20;;;5.97;;
71091;SDS011;58751;50.708;7.134;2023-04-25T03:16:14;10.40;;;5.10;;
71091;SDS011;58751;50.708;7.134;2023-04-25T03:18:39;10.37;;;5.20;;
71091;SDS011;58751;50.708;7.134;2023-04-25T03:21:05;16.30;;;6.07;;
71091;SDS011;58751;50.708;7.134;2023-04-25T03:23:31;11.25;;;5.13;;
71091;SDS011;58751;50.708;7.134;2023-04-25T03:25:56;6.00;;;4.60;;
71091;SDS011;58751;50.708;7.134;2023-04-25T03:28:21;7.67;;;4.60;;
71091;SDS011;58751;50.708;7.134;2023-04-25T03:30:46;10.20;;;5.07;;
71091;SDS011;58751;50.708;7.134;2023-04-25T03:33:12;8.80;;;4.93;;
71091;SDS011;58751;50.708;7.134;2023-04-25T03:35:37;11.50;;;4.33;;
71091;SDS011;58751;50.708;7.134;2023-04-25T03:38:03;13.70;;;5.43;;
71091;SDS011;58751;50.708;7.134;2023-04-25T03:40:29;8.57;;;4.93;;
71091;SDS011;58751;50.708;7.134;2023-04-25T03:42:54;13.63;;;6.03;;
71091;SDS011;58751;50.708;7.134;2023-04-25T03:45:19;15.07;;;5.40;;
71091;SDS011;58751;50.708;7.134;2023-04-25T03:47:44;13.23;;;5.00;;
71091;SDS011;58751;50.708;7.134;2023-04-25T03:50:09;8.37;;;4.60;;
71091;SDS011;58751;50.708;7.134;2023-04-25T03:52:35;8.97;;;4.87;;
71091;SDS011;58751;50.708;7.134;2023-04-25T03:55:01;16.20;;;4.87;;
71091;SDS011;58751;50.708;7.134;2023-04-25T03:57:26;10.63;;;5.63;;
71091;SDS011;58751;50.708;7.134;2023-04-25T03:59:52;11.97;;;5.63;;
71091;SDS011;58751;50.708;7.134;2023-04-25T04:02:17;6.57;;;4.23;;
71091;SDS011;58751;50.708;7.134;2023-04-25T04:04:42;8.87;;;4.67;;
71091;SDS011;58751;50.708;7.134;2023-04-25T04:07:08;12.33;;;5.20;;
71091;SDS011;58751;50.708;7.134;2023-04-25T04:09:34;14.98;;;5.63;;
71091;SDS011;58751;50.708;7.134;2023-04-25T04:12:00;10.10;;;6.20;;
71091;SDS011;58751;50.708;7.134;2023-04-25T04:14:26;9.00;;;4.93;;
71091;SDS011;58751;50.708;7.134;2023-04-25T04:16:51;11.17;;;5.40;;
71091;SDS011;58751;50.708;7.134;2023-04-25T04:19:16;8.80;;;4.27;;
71091;SDS011;58751;50.708;7.134;2023-04-25T04:21:43;13.33;;;5.20;;
71091;SDS011;58751;50.708;7.134;2023-04-25T04:24:08;11.20;;;5.68;;
71091;SDS011;58751;50.708;7.134;2023-04-25T04:26:33;8.77;;;4.87;;
71091;SDS011;58751;50.708;7.134;2023-04-25T04:29:00;7.30;;;5.30;;
71091;SDS011;58751;50.708;7.134;2023-04-25T04:31:25;7.43;;;4.85;;
71091;SDS011;58751;50.708;7.134;2023-04-25T04:33:50;12.03;;;5.20;;
71091;SDS011;58751;50.708;7.134;2023-04-25T04:36:15;13.67;;;4.97;;
71091;SDS011;58751;50.708;7.134;2023-04-25T04:38:41;17.53;;;6.53;;
71091;SDS011;58751;50.708;7.134;2023-04-25T04:41:06;11.23;;;5.50;;
71091;SDS011;58751;50.708;7.134;2023-04-25T04:43:31;11.10;;;6.17;;
71091;SDS011;58751;50.708;7.134;2023-04-25T04:46:00;8.90;;;4.97;;
71091;SDS011;58751;50.708;7.134;2023-04-25T04:48:26;7.10;;;4.88;;
71091;SDS011;58751;50.708;7.134;2023-04-25T04:50:51;6.50;;;4.50;;
71091;SDS011;58751;50.708;7.134;2023-04-25T04:53:16;9.73;;;5.30;;
71091;SDS011;58751;50.708;7.134;2023-04-25T04:55:42;9.75;;;4.80;;
71091;SDS011;58751;50.708;7.134;2023-04-25T04:58:08;13.67;;;6.60;;
71091;SDS011;58751;50.708;7.134;2023-04-25T05:00:33;10.03;;;4.87;;
71091;SDS011;58751;50.708;7.134;2023-04-25T05:02:59;9.07;;;5.90;;
71091;SDS011;58751;50.708;7.134;2023-04-25T05:05:25;20.73;;;5.93;;
71091;SDS011;58751;50.708;7.134;2023-04-25T05:07:50;12.13;;;5.83;;
71091;SDS011;58751;50.708;7.134;2023-04-25T05:10:18;12.60;;;5.40;;
71091;SDS011;58751;50.708;7.134;2023-04-25T05:12:43;11.77;;;5.50;;
71091;SDS011;58751;50.708;7.134;2023-04-25T05:15:09;7.40;;;5.40;;
71091;SDS011;58751;50.708;7.134;2023-04-25T05:17:34;11.40;;;5.30;;
71091;SDS011;58751;50.708;7.134;2023-04-25T05:20:01;15.40;;;6.50;;
71091;SDS011;58751;50.708;7.134;2023-04-25T05:22:26;9.75;;;5.35;;
71091;SDS011;58751;50.708;7.134;2023-04-25T05:24:51;11.40;;;5.30;;
71091;SDS011;58751;50.708;7.134;2023-04-25T05:27:17;13.67;;;5.23;;
71091;SDS011;58751;50.708;7.134;2023-04-25T05:29:42;8.87;;;6.20;;
71091;SDS011;58751;50.708;7.134;2023-04-25T05:32:07;9.43;;;6.30;;
71091;SDS011;58751;50.708;7.134;2023-04-25T05:34:32;9.27;;;5.40;;
71091;SDS011;58751;50.708;7.134;2023-04-25T05:36:59;7.43;;;5.40;;
71091;SDS011;58751;50.708;7.134;2023-04-25T05:39:24;11.18;;;4.80;;
71091;SDS011;58751;50.708;7.134;2023-04-25T05:41:49;6.97;;;4.30;;
71091;SDS011;58751;50.708;7.134;2023-04-25T05:44:14;13.17;;;5.40;;
71091;SDS011;58751;50.708;7.134;2023-04-25T05:46:40;13.33;;;5.70;;
71091;SDS011;58751;50.708;7.134;2023-04-25T05:49:05;8.63;;;5.70;;
71091;SDS011;58751;50.708;7.134;2023-04-25T05:51:30;11.00;;;6.23;;
71091;SDS011;58751;50.708;7.134;2023-04-25T05:53:57;9.83;;;6.00;;
71091;SDS011;58751;50.708;7.134;2023-04-25T05:56:22;8.93;;;7.40;;
71091;SDS011;58751;50.708;7.134;2023-04-25T05:58:47;13.50;;;6.27;;
71091;SDS011;58751;50.708;7.134;2023-04-25T06:01:12;9.73;;;5.40;;
71091;SDS011;58751;50.708;7.134;2023-04-25T06:03:37;19.40;;;6.13;;
71091;SDS011;58751;50.708;7.134;2023-04-25T06:06:03;19.43;;;7.27;;
71091;SDS011;58751;50.708;7.134;2023-04-25T06:08:28;9.90;;;5.70;;
71091;SDS011;58751;50.708;7.134;2023-04-25T06:10:55;11.40;;;5.83;;
71091;SDS011;58751;50.708;7.134;2023-04-25T06:13:20;11.98;;;5.15;;
71091;SDS011;58751;50.708;7.134;2023-04-25T06:15:45;10.97;;;5.23;;
71091;SDS011;58751;50.708;7.134;2023-04-25T06:18:11;10.40;;;5.10;;
71091;SDS011;58751;50.708;7.134;2023-04-25T06:20:36;14.43;;;6.60;;
71091;SDS011;58751;50.708;7.134;2023-04-25T06:23:01;10.43;;;5.70;;
71091;SDS011;58751;50.708;7.134;2023-04-25T06:25:26;11.43;;;6.87;;
71091;SDS011;58751;50.708;7.134;2023-04-25T06:27:53;10.30;;;6.80;;
71091;SDS011;58751;50.708;7.134;2023-04-25T06:30:18;17.88;;;6.78;;
71091;SDS011;58751;50.708;7.134;2023-04-25T06:32:43;11.93;;;6.73;;
71091;SDS011;58751;50.708;7.134;2023-04-25T06:35:09;14.27;;;7.87;;
71091;SDS011;58751;50.708;7.134;2023-04-25T06:37:34;13.47;;;6.70;;
71091;SDS011;58751;50.708;7.134;2023-04-25T06:39:59;11.50;;;6.07;;
71091;SDS011;58751;50.708;7.134;2023-04-25T06:42:24;18.87;;;6.90;;
71091;SDS011;58751;50.708;7.134;2023-04-25T06:44:51;12.23;;;6.00;;
71091;SDS011;58751;50.708;7.134;2023-04-25T06:47:16;10.32;;;5.43;;
71091;SDS011;58751;50.708;7.134;2023-04-25T06:49:41;14.13;;;7.30;;
71091;SDS011;58751;50.708;7.134;2023-04-25T06:52:06;14.70;;;6.00;;
71091;SDS011;58751;50.708;7.134;2023-04-25T06:54:32;15.33;;;6.70;;
71091;SDS011;58751;50.708;7.134;2023-04-25T06:56:57;19.23;;;7.03;;
71091;SDS011;58751;50.708;7.134;2023-04-25T06:59:22;12.80;;;5.93;;
71091;SDS011;58751;50.708;7.134;2023-04-25T07:01:49;14.60;;;6.03;;
71091;SDS011;58751;50.708;7.134;2023-04-25T07:04:14;12.23;;;6.43;;
71091;SDS011;58751;50.708;7.134;2023-04-25T07:06:39;9.63;;;6.93;;
71091;SDS011;58751;50.708;7.134;2023-04-25T07:09:04;14.00;;;6.67;;
71091;SDS011;58751;50.708;7.134;2023-04-25T07:11:30;13.00;;;6.17;;
71091;SDS011;58751;50.708;7.134;2023-04-25T07:13:55;18.13;;;6.40;;
71091;SDS011;58751;50.708;7.134;2023-04-25T07:16:20;13.37;;;6.23;;
71091;SDS011;58751;50.708;7.134;2023-04-25T07:18:46;15.37;;;6.20;;
71091;SDS011;58751;50.708;7.134;2023-04-25T07:21:12;12.15;;;5.18;;
71091;SDS011;58751;50.708;7.134;2023-04-25T07:23:37;11.17;;;6.07;;
71091;SDS011;58751;50.708;7.134;2023-04-25T07:26:02;10.43;;;5.03;;
71091;SDS011;58751;50.708;7.134;2023-04-25T07:28:27;13.30;;;4.90;;
71091;SDS011;58751;50.708;7.134;2023-04-25T07:30:53;9.70;;;4.87;;
71091;SDS011;58751;50.708;7.134;2023-04-25T07:33:18;11.10;;;4.67;;
71091;SDS011;58751;50.708;7.134;2023-04-25T07:35:44;10.97;;;4.00;;
71091;SDS011;58751;50.708;7.134;2023-04-25T07:38:10;9.13;;;4.30;;
71091;SDS011;58751;50.708;7.134;2023-04-25T07:40:35;9.17;;;4.90;;
71091;SDS011;58751;50.708;7.134;2023-04-25T07:43:00;9.67;;;5.80;;
71091;SDS011;58751;50.708;7.134;2023-04-25T07:45:25;12.57;;;4.03;;
71091;SDS011;58751;50.708;7.134;2023-04-25T07:47:51;7.83;;;3.90;;
71091;SDS011;58751;50.708;7.134;2023-04-25T07:50:16;12.30;;;4.90;;
71091;SDS011;58751;50.708;7.134;2023-04-25T07:52:43;7.70;;;4.03;;
71091;SDS011;58751;50.708;7.134;2023-04-25T07:55:08;14.23;;;4.50;;
71091;SDS011;58751;50.708;7.134;2023-04-25T07:57:33;5.40;;;3.73;;
71091;SDS011;58751;50.708;7.134;2023-04-25T07:59:58;9.77;;;3.87;;
71091;SDS011;58751;50.708;7.134;2023-04-25T08:02:24;8.20;;;4.10;;
71091;SDS011;58751;50.708;7.134;2023-04-25T08:04:50;5.73;;;3.80;;
71091;SDS011;58751;50.708;7.134;2023-04-25T08:07:15;8.93;;;3.50;;
71091;SDS011;58751;50.708;7.134;2023-04-25T08:09:42;11.53;;;3.77;;
71091;SDS011;58751;50.708;7.134;2023-04-25T08:12:07;6.68;;;3.80;;
71091;SDS011;58751;50.708;7.134;2023-04-25T08:14:32;5.53;;;3.00;;
71091;SDS011;58751;50.708;7.134;2023-04-25T08:16:57;9.53;;;3.70;;
71091;SDS011;58751;50.708;7.134;2023-04-25T08:19:22;5.07;;;3.00;;
71091;SDS011;58751;50.708;7.134;2023-04-25T08:21:48;5.70;;;3.60;;
71091;SDS011;58751;50.708;7.134;2023-04-25T08:24:13;7.37;;;3.57;;
71091;SDS011;58751;50.708;7.134;2023-04-25T08:26:39;6.73;;;3.60;;
71091;SDS011;58751;50.708;7.134;2023-04-25T08:29:05;5.35;;;2.65;;
71091;SDS011;58751;50.708;7.134;2023-04-25T08:31:30;7.37;;;2.43;;
71091;SDS011;58751;50.708;7.134;2023-04-25T08:33:55;5.63;;;2.73;;
71091;SDS011;58751;50.708;7.134;2023-04-25T08:36:20;4.30;;;2.43;;
71091;SDS011;58751;50.708;7.134;2023-04-25T08:38:46;7.30;;;3.00;;
71091;SDS011;58751;50.708;7.134;2023-04-25T08:41:11;10.53;;;3.10;;
71091;SDS011;58751;50.708;7.134;2023-04-25T08:43:38;8.73;;;2.90;;
71091;SDS011;58751;50.708;7.134;2023-04-25T08:46:06;6.63;;;3.95;;
71091;SDS011;58751;50.708;7.134;2023-04-25T08:48:33;14.80;;;4.03;;
71091;SDS011;58751;50.708;7.134;2023-04-25T08:50:58;6.30;;;3.00;;
71091;SDS011;58751;50.708;7.134;2023-04-25T08:53:25;4.33;;;3.40;;
71091;SDS011;58751;50.708;7.134;2023-04-25T08:55:50;7.15;;;3.45;;
71091;SDS011;58751;50.708;7.134;2023-04-25T08:58:16;7.00;;;2.93;;
71091;SDS011;58751;50.708;7.134;2023-04-25T09:00:44;5.03;;;2.60;;
71091;SDS011;58751;50.708;7.134;2023-04-25T09:03:10;5.63;;;2.90;;
71091;SDS011;58751;50.708;7.134;2023-04-25T09:05:36;6.50;;;2.63;;
71091;SDS011;58751;50.708;7.134;2023-04-25T09:08:01;6.90;;;3.73;;
71091;SDS011;58751;50.708;7.134;2023-04-25T09:10:26;6.10;;;3.90;;
71091;SDS011;58751;50.708;7.134;2023-04-25T09:13:04;7.90;;;3.67;;
71091;SDS011;58751;50.708;7.134;2023-04-25T09:15:30;8.43;;;2.63;;
71091;SDS011;58751;50.708;7.134;2023-04-25T09:17:56;7.13;;;2.47;;
71091;SDS011;58751;50.708;7.134;2023-04-25T09:20:22;8.45;;;3.45;;
71091;SDS011;58751;50.708;7.134;2023-04-25T09:22:47;4.87;;;3.03;;
71091;SDS011;58751;50.708;7.134;2023-04-25T09:25:12;4.60;;;2.50;;
71091;SDS011;58751;50.708;7.134;2023-04-25T09:27:48;4.43;;;2.30;;
71091;SDS011;58751;50.708;7.134;2023-04-25T09:30:14;2.37;;;2.17;;
71091;SDS011;58751;50.708;7.134;2023-04-25T09:32:41;2.27;;;1.97;;
71091;SDS011;58751;50.708;7.134;2023-04-25T09:35:08;6.50;;;2.50;;
71091;SDS011;58751;50.708;7.134;2023-04-25T09:37:33;3.80;;;2.90;;
71091;SDS011;58751;50.708;7.134;2023-04-25T09:39:59;3.80;;;2.23;;
71091;SDS011;58751;50.708;7.134;2023-04-25T09:42:25;4.27;;;1.83;;
71091;SDS011;58751;50.708;7.134;2023-04-25T09:44:51;3.70;;;2.03;;
71091;SDS011;58751;50.708;7.134;2023-04-25T09:47:16;3.33;;;2.20;;
71091;SDS011;58751;50.708;7.134;2023-04-25T09:49:42;3.03;;;1.93;;
71091;SDS011;58751;50.708;7.134;2023-04-25T09:52:09;6.50;;;2.30;;
71091;SDS011;58751;50.708;7.134;2023-04-25T09:54:34;3.23;;;2.20;;
71091;SDS011;58751;50.708;7.134;2023-04-25T09:57:00;5.20;;;2.40;;
71091;SDS011;58751;50.708;7.134;2023-04-25T09:59:27;9.03;;;2.83;;
71091;SDS011;58751;50.708;7.134;2023-04-25T10:01:54;4.03;;;2.13;;
71091;SDS011;58751;50.708;7.134;2023-04-25T10:04:22;4.23;;;2.40;;
71091;SDS011;58751;50.708;7.134;2023-04-25T10:06:48;8.17;;;3.80;;
71091;SDS011;58751;50.708;7.134;2023-04-25T10:09:14;7.43;;;2.83;;
71091;SDS011;58751;50.708;7.134;2023-04-25T10:11:40;4.27;;;2.20;;
71091;SDS011;58751;50.708;7.134;2023-04-25T10:14:06;10.10;;;2.90;;
71091;SDS011;58751;50.708;7.134;2023-04-25T10:16:31;5.07;;;2.70;;
71091;SDS011;58751;50.708;7.134;2023-04-25T10:18:56;4.40;;;2.27;;
71091;SDS011;58751;50.708;7.134;2023-04-25T10:21:22;4.10;;;2.13;;
71091;SDS011;58751;50.708;7.134;2023-04-25T10:23:47;4.20;;;2.33;;
71091;SDS011;58751;50.708;7.134;2023-04-25T10:26:15;4.47;;;2.30;;
71091;SDS011;58751;50.708;7.134;2023-04-25T10:28:54;3.37;;;2.10;;
71091;SDS011;58751;50.708;7.134;2023-04-25T10:31:20;3.70;;;2.10;;
71091;SDS011;58751;50.708;7.134;2023-04-25T10:33:45;5.67;;;2.60;;
71091;SDS011;58751;50.708;7.134;2023-04-25T10:36:11;5.57;;;2.53;;
71091;SDS011;58751;50.708;7.134;2023-04-25T10:38:36;6.53;;;2.00;;
71091;SDS011;58751;50.708;7.134;2023-04-25T10:41:02;3.33;;;2.30;;
71091;SDS011;58751;50.708;7.134;2023-04-25T10:43:36;3.83;;;2.03;;
71091;SDS011;58751;50.708;7.134;2023-04-25T10:46:02;7.10;;;2.30;;
71091;SDS011;58751;50.708;7.134;2023-04-25T10:48:27;3.80;;;2.73;;
71091;SDS011;58751;50.708;7.134;2023-04-25T10:51:06;7.17;;;2.77;;
71091;SDS011;58751;50.708;7.134;2023-04-25T10:53:32;4.80;;;3.30;;
71091;SDS011;58751;50.708;7.134;2023-04-25T10:55:58;2.67;;;2.47;;
71091;SDS011;58751;50.708;7.134;2023-04-25T10:58:23;6.80;;;3.10;;
71091;SDS011;58751;50.708;7.134;2023-04-25T11:00:50;8.37;;;2.60;;
71091;SDS011;58751;50.708;7.134;2023-04-25T11:03:16;3.47;;;2.80;;
71091;SDS011;58751;50.708;7.134;2023-04-25T11:05:41;3.13;;;2.40;;
71091;SDS011;58751;50.708;7.134;2023-04-25T11:08:10;3.67;;;2.03;;
71091;SDS011;58751;50.708;7.134;2023-04-25T11:10:36;4.87;;;2.83;;
71091;SDS011;58751;50.708;7.134;2023-04-25T11:13:01;8.17;;;3.20;;
71091;SDS011;58751;50.708;7.134;2023-04-25T11:15:26;5.70;;;2.20;;
71091;SDS011;58751;50.708;7.134;2023-04-25T11:17:53;7.30;;;3.37;;
71091;SDS011;58751;50.708;7.134;2023-04-25T11:20:19;5.85;;;3.00;;
71091;SDS011;58751;50.708;7.134;2023-04-25T11:22:44;3.53;;;2.90;;
71091;SDS011;58751;50.708;7.134;2023-04-25T11:25:11;4.17;;;2.87;;
71091;SDS011;58751;50.708;7.134;2023-04-25T11:27:48;4.20;;;2.80;;
71091;SDS011;58751;50.708;7.134;2023-04-25T11:30:14;6.47;;;2.53;;
71091;SDS011;58751;50.708;7.134;2023-04-25T11:32:39;2.80;;;2.27;;
71091;SDS011;58751;50.708;7.134;2023-04-25T11:35:07;5.80;;;2.67;;
71091;SDS011;58751;50.708;7.134;2023-04-25T11:37:32;3.17;;;2.20;;
71091;SDS011;58751;50.708;7.134;2023-04-25T11:39:57;5.70;;;2.60;;
71091;SDS011;58751;50.708;7.134;2023-04-25T11:42:22;3.27;;;2.53;;
71091;SDS011;58751;50.708;7.134;2023-04-25T11:44:47;6.07;;;2.40;;
71091;SDS011;58751;50.708;7.134;2023-04-25T11:47:13;6.97;;;3.03;;
71091;SDS011;58751;50.708;7.134;2023-04-25T11:49:38;3.20;;;2.37;;
71091;SDS011;58751;50.708;7.134;2023-04-25T11:52:05;5.10;;;2.97;;
71091;SDS011;58751;50.708;7.134;2023-04-25T11:54:31;9.70;;;3.10;;
71091;SDS011;58751;50.708;7.134;2023-04-25T11:56:56;4.47;;;2.63;;
71091;SDS011;58751;50.708;7.134;2023-04-25T11:59:23;5.53;;;2.53;;
71091;SDS011;58751;50.708;7.134;2023-04-25T12:01:48;3.73;;;2.50;;
71091;SDS011;58751;50.708;7.134;2023-04-25T12:04:14;7.50;;;2.87;;
71091;SDS011;58751;50.708;7.134;2023-04-25T12:06:40;5.67;;;3.27;;
71091;SDS011;58751;50.708;7.134;2023-04-25T12:09:08;4.27;;;2.43;;
71091;SDS011;58751;50.708;7.134;2023-04-25T12:11:40;5.82;;;2.50;;
71091;SDS011;58751;50.708;7.134;2023-04-25T12:14:05;2.43;;;1.80;;
71091;SDS011;58751;50.708;7.134;2023-04-25T12:16:39;9.63;;;2.53;;
71091;SDS011;58751;50.708;7.134;2023-04-25T12:19:04;6.47;;;2.05;;
71091;SDS011;58751;50.708;7.134;2023-04-25T12:21:29;2.03;;;1.83;;
71091;SDS011;58751;50.708;7.134;2023-04-25T12:23:55;4.10;;;1.80;;
71091;SDS011;58751;50.708;7.134;2023-04-25T12:26:22;4.43;;;1.80;;
71091;SDS011;58751;50.708;7.134;2023-04-25T12:28:47;6.07;;;1.80;;
71091;SDS011;58751;50.708;7.134;2023-04-25T12:31:12;2.93;;;2.10;;
71091;SDS011;58751;50.708;7.134;2023-04-25T12:33:37;2.73;;;1.53;;
71091;SDS011;58751;50.708;7.134;2023-04-25T12:36:03;2.03;;;1.43;;
71091;SDS011;58751;50.708;7.134;2023-04-25T12:38:29;3.03;;;1.80;;
71091;SDS011;58751;50.708;7.134;2023-04-25T12:40:57;4.30;;;1.80;;
71091;SDS011;58751;50.708;7.134;2023-04-25T12:43:23;3.30;;;2.17;;
71091;SDS011;58751;50.708;7.134;2023-04-25T12:45:49;2.53;;;2.13;;
71091;SDS011;58751;50.708;7.134;2023-04-25T12:48:14;5.97;;;2.67;;
71091;SDS011;58751;50.708;7.134;2023-04-25T12:50:39;2.80;;;2.17;;
71091;SDS011;58751;50.708;7.134;2023-04-25T12:53:05;4.43;;;3.30;;
71091;SDS011;58751;50.708;7.134;2023-04-25T12:55:30;8.67;;;3.00;;
71091;SDS011;58751;50.708;7.134;2023-04-25T12:57:55;3.50;;;2.13;;
71091;SDS011;58751;50.708;7.134;2023-04-25T13:00:22;9.60;;;2.63;;
71091;SDS011;58751;50.708;7.134;2023-04-25T13:02:47;6.03;;;2.33;;
71091;SDS011;58751;50.708;7.134;2023-04-25T13:05:12;4.97;;;2.40;;
71091;SDS011;58751;50.708;7.134;2023-04-25T13:07:37;5.57;;;2.20;;
71091;SDS011;58751;50.708;7.134;2023-04-25T13:10:03;7.87;;;1.97;;
71091;SDS011;58751;50.708;7.134;2023-04-25T13:12:28;3.47;;;2.13;;
71091;SDS011;58751;50.708;7.134;2023-04-25T13:14:53;4.50;;;1.80;;
71091;SDS011;58751;50.708;7.134;2023-04-25T13:17:20;4.33;;;2.57;;
71091;SDS011;58751;50.708;7.134;2023-04-25T13:19:45;5.50;;;2.20;;
71091;SDS011;58751;50.708;7.134;2023-04-25T13:22:10;6.17;;;2.67;;
71091;SDS011;58751;50.708;7.134;2023-04-25T13:24:35;2.30;;;1.87;;
71091;SDS011;58751;50.708;7.134;2023-04-25T13:27:01;3.60;;;2.30;;
71091;SDS011;58751;50.708;7.134;2023-04-25T13:29:26;3.83;;;1.90;;
71091;SDS011;58751;50.708;7.134;2023-04-25T13:31:51;1.60;;;1.47;;
71091;SDS011;58751;50.708;7.134;2023-04-25T13:34:18;5.23;;;2.33;;
71091;SDS011;58751;50.708;7.134;2023-04-25T13:36:43;4.67;;;2.33;;
71091;SDS011;58751;50.708;7.134;2023-04-25T13:39:08;3.93;;;2.10;;
71091;SDS011;58751;50.708;7.134;2023-04-25T13:41:33;5.13;;;2.20;;
71091;SDS011;58751;50.708;7.134;2023-04-25T13:43:58;2.60;;;2.37;;
71091;SDS011;58751;50.708;7.134;2023-04-25T13:46:24;1.90;;;1.70;;
71091;SDS011;58751;50.708;7.134;2023-04-25T13:48:49;5.00;;;2.60;;
71091;SDS011;58751;50.708;7.134;2023-04-25T13:51:16;2.40;;;2.10;;
71091;SDS011;58751;50.708;7.134;2023-04-25T13:53:41;5.53;;;2.93;;
71091;SDS011;58751;50.708;7.134;2023-04-25T13:56:06;6.50;;;2.33;;
71091;SDS011;58751;50.708;7.134;2023-04-25T13:58:31;2.90;;;2.00;;
71091;SDS011;58751;50.708;7.134;2023-04-25T14:00:57;2.50;;;1.80;;
71091;SDS011;58751;50.708;7.134;2023-04-25T14:03:22;3.27;;;1.40;;
71091;SDS011;58751;50.708;7.134;2023-04-25T14:05:47;3.33;;;2.00;;
71091;SDS011;58751;50.708;7.134;2023-04-25T14:08:14;2.57;;;1.70;;
71091;SDS011;58751;50.708;7.134;2023-04-25T14:10:39;2.50;;;1.80;;
71091;SDS011;58751;50.708;7.134;2023-04-25T14:13:04;4.67;;;2.20;;
71091;SDS011;58751;50.708;7.134;2023-04-25T14:15:30;6.10;;;2.23;;
71091;SDS011;58751;50.708;7.134;2023-04-25T14:17:56;2.20;;;2.00;;
71091;SDS011;58751;50.708;7.134;2023-04-25T14:20:21;3.70;;;2.90;;
71091;SDS011;58751;50.708;7.134;2023-04-25T14:22:46;4.53;;;2.53;;
71091;SDS011;58751;50.708;7.134;2023-04-25T14:25:13;2.30;;;2.10;;
71091;SDS011;58751;50.708;7.134;2023-04-25T14:27:38;5.40;;;2.17;;
71091;SDS011;58751;50.708;7.134;2023-04-25T14:30:04;5.93;;;2.90;;
71091;SDS011;58751;50.708;7.134;2023-04-25T14:32:29;2.57;;;1.30;;
71091;SDS011;58751;50.708;7.134;2023-04-25T14:34:54;14.63;;;10.37;;